createdAt,value
2019-05-02T00:01:40.931Z,10.20
2019-05-02T00:04:12.465Z,10.20
2019-05-02T00:06:44.204Z,10.03
2019-05-02T00:09:14.142Z,9.98
2019-05-02T00:11:43.555Z,9.87
2019-05-02T00:14:13.152Z,9.87
2019-05-02T00:16:45.222Z,9.83
2019-05-02T00:19:15.333Z,9.75
2019-05-02T00:21:44.774Z,9.75
2019-05-02T00:24:14.183Z,9.82
2019-05-02T00:26:43.629Z,9.85
2019-05-02T00:29:13.128Z,9.74
2019-05-02T00:31:46.832Z,9.78
2019-05-02T00:34:13.662Z,9.73
2019-05-02T00:36:43.142Z,9.73
2019-05-02T00:39:13.821Z,9.63
2019-05-02T00:41:43.900Z,9.63
2019-05-02T00:44:13.859Z,9.62
2019-05-02T00:46:43.294Z,9.47
2019-05-02T00:49:12.766Z,9.50
2019-05-02T00:51:42.172Z,9.49
2019-05-02T00:54:11.534Z,9.49
2019-05-02T00:56:44.054Z,9.45
2019-05-02T00:59:12.155Z,9.53
2019-05-02T01:02:00.021Z,9.43
2019-05-02T01:04:34.130Z,9.43
2019-05-02T01:07:04.442Z,9.50
2019-05-02T01:09:33.822Z,9.46
2019-05-02T01:12:08.179Z,9.44
2019-05-02T01:14:34.334Z,9.34
2019-05-02T01:17:03.715Z,9.34
2019-05-02T01:19:33.097Z,9.26
2019-05-02T01:22:02.469Z,9.26
2019-05-02T01:24:34.103Z,9.18
2019-05-02T01:27:21.917Z,9.18
2019-05-02T01:30:01.670Z,9.24
2019-05-02T01:32:47.160Z,9.28
2019-05-02T01:35:22.296Z,9.30
2019-05-02T01:38:16.694Z,9.30
2019-05-02T01:40:53.331Z,9.26
2019-05-02T01:43:28.908Z,9.19
2019-05-02T01:45:58.308Z,9.19
2019-05-02T01:48:27.936Z,9.13
2019-05-02T01:50:57.315Z,9.01
2019-05-02T01:53:29.353Z,9.02
2019-05-02T01:55:59.396Z,9.02
2019-05-02T01:58:28.935Z,8.96
2019-05-02T02:00:58.305Z,8.95
2019-05-02T02:03:27.967Z,8.99
2019-05-02T02:06:02.775Z,8.97
2019-05-02T02:08:32.622Z,8.94
2019-05-02T02:10:59.900Z,8.94
2019-05-02T02:13:31.137Z,8.75
2019-05-02T02:16:04.505Z,8.76
2019-05-02T02:18:34.500Z,8.76
2019-05-02T02:21:25.766Z,8.78
2019-05-02T02:24:11.594Z,8.70
2019-05-02T02:26:43.599Z,8.70
2019-05-02T02:29:12.079Z,8.65
2019-05-02T02:31:46.866Z,8.65
2019-05-02T02:34:12.778Z,8.61
2019-05-02T02:36:42.209Z,8.63
2019-05-02T02:39:13.995Z,8.67
2019-05-02T02:41:45.356Z,8.56
2019-05-02T02:44:40.080Z,8.56
2019-05-02T02:47:12.180Z,8.55
2019-05-02T02:49:38.382Z,8.56
2019-05-02T02:52:07.810Z,8.55
2019-05-02T02:54:43.179Z,8.50
2019-05-02T02:57:20.538Z,8.51
2019-05-02T02:59:39.518Z,8.51
2019-05-02T03:02:11.691Z,8.35
2019-05-02T03:04:44.066Z,8.39
2019-05-02T03:07:11.187Z,8.37
2019-05-02T03:09:40.567Z,8.37
2019-05-02T03:12:27.780Z,8.36
2019-05-02T03:14:58.907Z,8.40
2019-05-02T03:17:28.903Z,8.40
2019-05-02T03:20:01.512Z,8.36
2019-05-02T03:22:34.946Z,8.36
2019-05-02T03:25:00.866Z,8.34
2019-05-02T03:27:37.274Z,8.30
2019-05-02T03:30:01.485Z,8.28
2019-05-02T03:32:35.062Z,8.32
2019-05-02T03:35:02.327Z,8.30
2019-05-02T03:37:32.993Z,8.33
2019-05-02T03:40:02.409Z,8.34
2019-05-02T03:42:43.633Z,8.33
2019-05-02T03:45:05.010Z,8.32
2019-05-02T03:47:36.931Z,8.30
2019-05-02T03:50:09.207Z,8.23
2019-05-02T03:52:43.680Z,8.21
2019-05-02T03:55:09.517Z,8.21
2019-05-02T03:57:41.976Z,8.19
2019-05-02T04:00:13.942Z,8.16
2019-05-02T04:02:41.276Z,8.18
2019-05-02T04:05:10.900Z,8.16
2019-05-02T04:07:42.389Z,8.20
2019-05-02T04:10:20.016Z,8.21
2019-05-02T04:12:45.798Z,8.23
2019-05-02T04:15:15.177Z,8.15
2019-05-02T04:17:44.694Z,8.15
2019-05-02T04:20:14.189Z,8.23
2019-05-02T04:22:48.981Z,8.28
2019-05-02T04:25:14.994Z,8.25
2019-05-02T04:27:44.605Z,8.23
2019-05-02T04:30:15.688Z,8.34
2019-05-02T04:32:49.796Z,8.22
2019-05-02T04:35:16.204Z,8.16
2019-05-02T04:37:45.632Z,8.31
2019-05-02T04:40:17.973Z,8.27
2019-05-02T04:42:51.224Z,8.29
2019-05-02T04:45:28.305Z,8.30
2019-05-02T04:47:54.778Z,8.30
2019-05-02T04:50:24.984Z,8.30
2019-05-02T04:52:53.923Z,8.46
2019-05-02T04:55:29.232Z,8.39
2019-05-02T04:57:53.302Z,8.50
2019-05-02T05:00:28.640Z,8.58
2019-05-02T05:02:58.288Z,8.68
2019-05-02T05:05:31.050Z,8.66
2019-05-02T05:07:58.898Z,8.76
2019-05-02T05:10:28.466Z,8.76
2019-05-02T05:12:58.005Z,8.80
2019-05-02T05:15:38.283Z,8.87
2019-05-02T05:17:58.524Z,8.89
2019-05-02T05:20:28.106Z,9.02
2019-05-02T05:22:58.097Z,9.00
2019-05-02T05:25:34.073Z,9.14
2019-05-02T05:28:06.019Z,9.14
2019-05-02T05:30:37.674Z,9.21
2019-05-02T05:33:07.628Z,9.33
2019-05-02T05:35:38.570Z,9.33
2019-05-02T05:38:08.119Z,9.48
2019-05-02T05:40:38.160Z,9.51
2019-05-02T05:43:14.352Z,9.51
2019-05-02T05:45:50.730Z,9.55
2019-05-02T05:48:09.877Z,9.66
2019-05-02T05:50:41.378Z,9.78
2019-05-02T05:53:12.366Z,9.85
2019-05-02T05:55:41.638Z,9.85
2019-05-02T05:58:15.327Z,9.96
2019-05-02T06:00:45.860Z,10.35
2019-05-02T06:03:14.206Z,10.35
2019-05-02T06:05:43.831Z,10.34
2019-05-02T06:08:13.824Z,10.43
2019-05-02T06:10:45.244Z,10.33
2019-05-02T06:13:14.674Z,10.51
2019-05-02T06:15:45.906Z,10.70
2019-05-02T06:18:15.174Z,10.84
2019-05-02T06:20:44.550Z,10.91
2019-05-02T06:23:14.030Z,11.01
2019-05-02T06:25:43.463Z,11.07
2019-05-02T06:28:12.847Z,11.17
2019-05-02T06:30:42.472Z,11.29
2019-05-02T06:33:11.940Z,11.44
2019-05-02T06:35:41.341Z,11.56
2019-05-02T06:38:10.830Z,11.64
2019-05-02T06:40:44.786Z,11.81
2019-05-02T06:43:11.488Z,11.98
2019-05-02T06:45:40.922Z,12.19
2019-05-02T06:48:16.851Z,12.31
2019-05-02T06:50:41.461Z,12.50
2019-05-02T06:53:11.235Z,12.77
2019-05-02T06:55:40.816Z,12.94
2019-05-02T06:58:10.290Z,13.11
2019-05-02T07:00:56.009Z,13.27
2019-05-02T07:03:11.685Z,13.28
2019-05-02T07:05:41.379Z,13.49
2019-05-02T07:08:11.854Z,13.67
2019-05-02T07:10:44.806Z,13.56
2019-05-02T07:13:15.062Z,13.64
2019-05-02T07:16:15.237Z,13.50
2019-05-02T07:18:50.059Z,13.76
2019-05-02T07:21:23.392Z,13.64
2019-05-02T07:23:53.583Z,13.72
2019-05-02T07:26:23.349Z,13.66
2019-05-02T07:28:52.783Z,13.54
2019-05-02T07:31:22.219Z,13.64
2019-05-02T07:33:51.612Z,13.76
2019-05-02T07:36:20.990Z,13.98
2019-05-02T07:38:50.532Z,14.17
2019-05-02T07:41:24.186Z,14.14
2019-05-02T07:43:52.001Z,14.16
2019-05-02T07:46:22.387Z,14.38
2019-05-02T07:48:54.891Z,14.61
2019-05-02T07:51:25.137Z,14.72
2019-05-02T07:53:55.783Z,15.04
2019-05-02T07:56:25.413Z,15.04
2019-05-02T07:58:54.954Z,15.23
2019-05-02T08:01:24.533Z,15.18
2019-05-02T08:03:54.398Z,15.14
2019-05-02T08:06:34.971Z,15.11
2019-05-02T08:08:55.572Z,15.18
2019-05-02T08:11:25.181Z,15.33
2019-05-02T08:13:55.501Z,15.48
2019-05-02T08:16:27.466Z,15.57
2019-05-02T08:19:01.369Z,15.48
2019-05-02T08:21:32.519Z,15.47
2019-05-02T08:24:02.224Z,15.77
2019-05-02T08:26:48.316Z,15.76
2019-05-02T08:29:18.256Z,15.81
2019-05-02T08:31:47.653Z,15.84
2019-05-02T08:34:19.801Z,15.93
2019-05-02T08:36:49.361Z,16.07
2019-05-02T08:39:19.904Z,16.01
2019-05-02T08:41:51.307Z,16.25
2019-05-02T08:44:20.686Z,15.97
2019-05-02T08:46:51.370Z,16.15
2019-05-02T08:49:21.380Z,16.10
2019-05-02T08:51:51.389Z,16.14
2019-05-02T08:54:20.855Z,16.51
2019-05-02T08:56:53.407Z,16.71
2019-05-02T08:59:24.496Z,16.79
2019-05-02T09:01:52.590Z,16.93
2019-05-02T09:04:24.217Z,17.02
2019-05-02T09:06:58.002Z,16.58
2019-05-02T09:09:28.184Z,16.81
2019-05-02T09:12:08.962Z,16.90
2019-05-02T09:14:28.592Z,17.08
2019-05-02T09:17:00.247Z,17.16
2019-05-02T09:19:32.434Z,17.40
2019-05-02T09:22:02.442Z,17.33
2019-05-02T09:24:32.589Z,17.50
2019-05-02T09:27:02.550Z,17.45
2019-05-02T09:29:32.762Z,17.63
2019-05-02T09:32:02.314Z,17.67
2019-05-02T09:34:32.580Z,17.80
2019-05-02T09:37:02.725Z,17.86
2019-05-02T09:39:36.405Z,17.91
2019-05-02T09:42:06.562Z,17.71
2019-05-02T09:44:34.659Z,17.70
2019-05-02T09:47:04.217Z,17.83
2019-05-02T09:49:33.585Z,18.05
2019-05-02T09:52:03.422Z,18.33
2019-05-02T09:54:37.017Z,18.36
2019-05-02T09:57:04.830Z,18.19
2019-05-02T09:59:34.241Z,18.22
2019-05-02T10:02:06.552Z,18.54
2019-05-02T10:04:36.102Z,18.47
2019-05-02T10:07:05.990Z,18.97
2019-05-02T10:09:35.478Z,18.61
2019-05-02T10:12:05.031Z,18.68
2019-05-02T10:14:34.608Z,18.80
2019-05-02T10:17:07.132Z,18.65
2019-05-02T10:19:35.293Z,18.89
2019-05-02T10:22:05.039Z,19.19
2019-05-02T10:24:34.433Z,19.05
2019-05-02T10:27:08.519Z,18.87
2019-05-02T10:29:35.185Z,18.61
2019-05-02T10:32:07.590Z,18.41
2019-05-02T10:34:35.874Z,18.44
2019-05-02T10:37:05.274Z,18.62
2019-05-02T10:39:37.841Z,18.58
2019-05-02T10:42:06.081Z,18.79
2019-05-02T10:44:36.623Z,18.68
2019-05-02T10:47:06.226Z,19.06
2019-05-02T10:49:43.978Z,19.03
2019-05-02T10:52:13.493Z,19.06
2019-05-02T10:54:42.869Z,18.84
2019-05-02T10:57:12.784Z,19.07
2019-05-02T10:59:42.233Z,18.93
2019-05-02T11:02:33.890Z,18.79
2019-05-02T11:05:08.973Z,18.50
2019-05-02T11:07:38.411Z,18.07
2019-05-02T11:10:09.248Z,18.32
2019-05-02T11:12:56.754Z,18.45
2019-05-02T11:15:47.956Z,18.44
2019-05-02T11:18:22.205Z,18.40
2019-05-02T11:20:52.567Z,18.36
2019-05-02T11:23:22.987Z,18.60
2019-05-02T11:25:53.869Z,19.04
2019-05-02T11:28:23.367Z,19.26
2019-05-02T11:30:57.016Z,19.58
2019-05-02T11:33:24.268Z,19.74
2019-05-02T11:35:53.904Z,19.53
2019-05-02T11:38:44.382Z,19.25
2019-05-02T11:40:54.433Z,19.30
2019-05-02T11:43:23.883Z,18.81
2019-05-02T11:45:54.411Z,19.12
2019-05-02T11:48:25.316Z,19.02
2019-05-02T11:50:54.687Z,19.27
2019-05-02T11:53:28.865Z,19.79
2019-05-02T11:55:58.429Z,19.65
2019-05-02T11:58:26.568Z,20.21
2019-05-02T12:00:56.041Z,20.35
2019-05-02T12:03:42.701Z,20.52
2019-05-02T12:06:19.138Z,20.94
2019-05-02T12:08:45.055Z,20.86
2019-05-02T12:11:17.687Z,20.67
2019-05-02T12:13:47.403Z,20.37
2019-05-02T12:16:17.692Z,20.60
2019-05-02T12:18:47.144Z,20.86
2019-05-02T12:21:16.706Z,20.68
2019-05-02T12:23:46.086Z,20.42
2019-05-02T12:26:15.571Z,19.39
2019-05-02T12:28:45.156Z,19.37
2019-05-02T12:31:29.473Z,20.50
2019-05-02T12:34:02.516Z,21.78
2019-05-02T12:36:33.383Z,22.90
2019-05-02T12:39:03.020Z,22.87
2019-05-02T12:41:33.215Z,22.48
2019-05-02T12:44:02.966Z,22.20
2019-05-02T12:46:32.702Z,22.03
2019-05-02T12:49:03.002Z,21.49
2019-05-02T12:51:32.603Z,21.34
2019-05-02T12:54:02.533Z,22.22
2019-05-02T12:56:32.547Z,23.09
2019-05-02T12:59:02.653Z,23.13
2019-05-02T13:01:33.121Z,22.58
2019-05-02T13:04:13.263Z,23.38
2019-05-02T13:06:43.041Z,23.32
2019-05-02T13:09:13.154Z,21.56
2019-05-02T13:12:07.896Z,21.15
2019-05-02T13:14:38.346Z,21.11
2019-05-02T13:17:08.259Z,21.04
2019-05-02T13:19:41.639Z,21.89
2019-05-02T13:22:28.475Z,21.74
2019-05-02T13:25:10.204Z,22.56
2019-05-02T13:27:44.335Z,21.43
2019-05-02T13:30:17.667Z,21.27
2019-05-02T13:32:53.769Z,21.15
2019-05-02T13:35:42.084Z,21.57
2019-05-02T13:38:12.996Z,22.06
2019-05-02T13:41:23.992Z,21.64
2019-05-02T13:43:54.156Z,20.85
2019-05-02T13:46:26.708Z,21.20
2019-05-02T13:48:55.200Z,22.11
2019-05-02T13:51:24.603Z,22.85
2019-05-02T13:53:59.088Z,22.11
2019-05-02T13:56:49.062Z,21.28
2019-05-02T13:59:19.585Z,21.15
2019-05-02T14:01:52.085Z,21.49
2019-05-02T14:04:23.287Z,21.01
2019-05-02T14:06:53.650Z,20.88
2019-05-02T14:09:29.012Z,20.66
2019-05-02T14:12:26.841Z,20.51
2019-05-02T14:14:56.489Z,20.25
2019-05-02T14:17:26.296Z,20.38
2019-05-02T14:20:07.775Z,19.58
2019-05-02T14:22:28.967Z,19.66
2019-05-02T14:24:58.371Z,19.80
2019-05-02T14:27:27.761Z,19.81
2019-05-02T14:29:57.250Z,19.86
2019-05-02T14:32:27.148Z,19.87
2019-05-02T14:35:18.566Z,19.77
2019-05-02T14:37:50.670Z,19.99
2019-05-02T14:40:27.144Z,19.93
2019-05-02T14:42:57.807Z,19.80
2019-05-02T14:45:31.332Z,19.86
2019-05-02T14:48:17.517Z,19.51
2019-05-02T14:50:31.969Z,19.56
2019-05-02T14:53:04.366Z,19.82
2019-05-02T14:55:36.352Z,19.96
2019-05-02T14:58:06.116Z,19.62
2019-05-02T15:00:39.735Z,19.73
2019-05-02T15:03:10.280Z,19.69
2019-05-02T15:05:39.657Z,20.12
2019-05-02T15:08:09.072Z,19.78
2019-05-02T15:10:50.670Z,20.07
2019-05-02T15:13:09.639Z,20.05
2019-05-02T15:15:42.927Z,19.59
2019-05-02T15:18:15.926Z,19.99
2019-05-02T15:20:42.378Z,20.14
2019-05-02T15:23:19.387Z,19.66
2019-05-02T15:25:47.191Z,19.96
2019-05-02T15:28:19.361Z,20.38
2019-05-02T15:31:04.965Z,20.46
2019-05-02T15:33:37.522Z,19.70
2019-05-02T15:36:07.739Z,19.79
2019-05-02T15:38:42.004Z,19.85
2019-05-02T15:41:12.594Z,19.27
2019-05-02T15:43:44.470Z,19.22
2019-05-02T15:46:15.771Z,19.10
2019-05-02T15:48:42.303Z,19.27
2019-05-02T15:51:12.336Z,19.42
2019-05-02T15:53:52.505Z,19.44
2019-05-02T15:56:20.341Z,19.30
2019-05-02T15:58:49.690Z,19.25
2019-05-02T16:01:45.328Z,19.36
2019-05-02T16:04:17.201Z,19.54
2019-05-02T16:06:45.270Z,19.44
2019-05-02T16:09:14.870Z,19.34
2019-05-02T16:11:47.848Z,19.25
2019-05-02T16:14:15.718Z,19.15
2019-05-02T16:16:45.438Z,19.09
2019-05-02T16:19:27.180Z,19.24
2019-05-02T16:21:52.041Z,19.40
2019-05-02T16:24:24.763Z,19.54
2019-05-02T16:26:56.930Z,19.79
2019-05-02T16:29:28.714Z,19.58
2019-05-02T16:32:35.920Z,19.16
2019-05-02T16:35:15.399Z,19.21
2019-05-02T16:37:39.370Z,19.24
2019-05-02T16:40:12.049Z,18.74
2019-05-02T16:42:41.953Z,18.92
2019-05-02T16:45:12.013Z,18.90
2019-05-02T16:47:42.310Z,19.13
2019-05-02T16:50:12.376Z,19.40
2019-05-02T16:52:43.666Z,19.23
2019-05-02T16:55:20.571Z,19.12
2019-05-02T16:57:44.697Z,19.24
2019-05-02T17:00:18.830Z,19.15
2019-05-02T17:02:48.196Z,19.10
2019-05-02T17:05:17.711Z,19.10
2019-05-02T17:07:56.495Z,18.96
2019-05-02T17:10:53.713Z,19.41
2019-05-02T17:13:18.955Z,19.22
2019-05-02T17:15:48.588Z,18.98
2019-05-02T17:18:18.429Z,19.05
2019-05-02T17:20:53.572Z,18.92
2019-05-02T17:23:19.243Z,18.55
2019-05-02T17:25:48.657Z,18.21
2019-05-02T17:28:18.042Z,17.87
2019-05-02T17:30:47.958Z,17.87
2019-05-02T17:33:17.355Z,17.80
2019-05-02T17:35:51.538Z,17.73
2019-05-02T17:38:19.120Z,17.53
2019-05-02T17:40:51.752Z,17.59
2019-05-02T17:43:20.322Z,17.55
2019-05-02T17:45:49.804Z,17.51
2019-05-02T17:48:19.256Z,17.52
2019-05-02T17:51:12.396Z,17.32
2019-05-02T17:53:49.295Z,17.29
2019-05-02T17:56:20.856Z,17.25
2019-05-02T17:58:47.313Z,17.20
2019-05-02T18:01:21.765Z,17.08
2019-05-02T18:03:52.073Z,16.98
2019-05-02T18:06:32.399Z,17.02
2019-05-02T18:08:55.297Z,16.99
2019-05-02T18:11:24.050Z,17.08
2019-05-02T18:13:53.539Z,17.07
2019-05-02T18:16:22.985Z,16.91
2019-05-02T18:18:52.633Z,16.79
2019-05-02T18:21:26.939Z,16.80
2019-05-02T18:23:57.144Z,16.71
2019-05-02T18:26:24.616Z,16.70
2019-05-02T18:28:57.144Z,16.65
2019-05-02T18:31:25.281Z,16.59
2019-05-02T18:33:54.899Z,16.60
2019-05-02T18:36:26.948Z,16.66
2019-05-02T18:39:00.611Z,16.60
2019-05-02T18:41:26.887Z,16.58
2019-05-02T18:43:56.404Z,16.56
2019-05-02T18:46:25.833Z,16.65
2019-05-02T18:48:55.262Z,16.66
2019-05-02T18:51:24.664Z,16.63
2019-05-02T18:53:58.056Z,16.63
2019-05-02T18:56:25.536Z,16.65
2019-05-02T18:58:55.069Z,16.60
2019-05-02T19:01:24.877Z,16.60
2019-05-02T19:03:56.309Z,16.63
2019-05-02T19:06:28.008Z,16.61
2019-05-02T19:09:02.163Z,16.64
2019-05-02T19:11:35.176Z,16.51
2019-05-02T19:14:02.847Z,16.39
2019-05-02T19:16:32.206Z,16.49
2019-05-02T19:19:01.893Z,16.38
2019-05-02T19:21:36.063Z,16.28
2019-05-02T19:24:02.519Z,16.35
2019-05-02T19:26:32.641Z,16.54
2019-05-02T19:29:17.483Z,16.36
2019-05-02T19:31:52.502Z,16.32
2019-05-02T19:34:26.610Z,16.42
2019-05-02T19:36:57.815Z,16.52
2019-05-02T19:39:26.051Z,16.64
2019-05-02T19:41:55.515Z,16.41
2019-05-02T19:44:28.876Z,16.43
2019-05-02T19:46:56.229Z,16.44
2019-05-02T19:49:25.726Z,16.50
2019-05-02T19:51:56.654Z,16.48
2019-05-02T19:54:26.562Z,16.59
2019-05-02T19:56:55.968Z,16.64
2019-05-02T19:59:26.813Z,16.61
2019-05-02T20:01:57.007Z,16.51
2019-05-02T20:04:27.598Z,16.33
2019-05-02T20:06:56.982Z,16.08
2019-05-02T20:09:26.391Z,15.91
2019-05-02T20:11:55.772Z,15.65
2019-05-02T20:14:25.202Z,15.59
2019-05-02T20:16:56.579Z,15.37
2019-05-02T20:19:27.149Z,15.42
2019-05-02T20:22:13.103Z,15.52
2019-05-02T20:24:58.507Z,15.40
2019-05-02T20:27:27.946Z,15.09
2019-05-02T20:29:56.230Z,14.94
2019-05-02T20:32:25.637Z,14.86
2019-05-02T20:34:55.130Z,14.98
2019-05-02T20:37:25.062Z,14.89
2019-05-02T20:39:54.443Z,14.95
2019-05-02T20:42:23.843Z,14.81
2019-05-02T20:44:53.254Z,14.70
2019-05-02T20:47:25.815Z,14.64
2019-05-02T20:49:55.220Z,14.55
2019-05-02T20:52:24.657Z,14.42
2019-05-02T20:54:54.062Z,14.39
2019-05-02T20:57:23.436Z,14.43
2019-05-02T20:59:52.831Z,14.30
2019-05-02T21:02:22.538Z,14.24
2019-05-02T21:04:52.311Z,14.12
2019-05-02T21:07:35.120Z,14.12
2019-05-02T21:10:10.054Z,14.08
2019-05-02T21:12:39.485Z,14.01
2019-05-02T21:15:09.064Z,13.97
2019-05-02T21:17:38.452Z,13.96
2019-05-02T21:20:07.999Z,13.90
2019-05-02T21:22:37.430Z,13.95
2019-05-02T21:25:07.412Z,13.99
2019-05-02T21:27:36.773Z,13.89
2019-05-02T21:30:08.045Z,13.80
2019-05-02T21:32:37.472Z,13.83
2019-05-02T21:35:07.160Z,13.93
2019-05-02T21:37:36.666Z,13.67
2019-05-02T21:40:06.985Z,13.69
2019-05-02T21:42:36.384Z,13.68
2019-05-02T21:45:06.374Z,13.60
2019-05-02T21:47:35.755Z,13.68
2019-05-02T21:50:18.605Z,13.59
2019-05-02T21:53:19.265Z,13.69
2019-05-02T21:56:02.700Z,13.47
2019-05-02T21:58:32.361Z,13.55
2019-05-02T22:01:09.487Z,13.51
2019-05-02T22:03:40.186Z,13.63
2019-05-02T22:06:12.056Z,13.46
2019-05-02T22:08:41.775Z,13.56
2019-05-02T22:11:12.221Z,13.79
2019-05-02T22:13:42.352Z,13.64
2019-05-02T22:16:12.950Z,13.53
2019-05-02T22:18:42.817Z,13.65
2019-05-02T22:21:12.409Z,13.33
2019-05-02T22:23:42.546Z,13.19
2019-05-02T22:26:12.788Z,13.29
2019-05-02T22:28:42.314Z,13.28
2019-05-02T22:31:12.297Z,13.11
2019-05-02T22:33:44.608Z,13.02
2019-05-02T22:36:13.312Z,13.05
2019-05-02T22:38:48.959Z,13.12
2019-05-02T22:41:18.430Z,13.00
2019-05-02T22:43:47.815Z,12.96
2019-05-02T22:46:36.164Z,13.03
2019-05-02T22:49:05.708Z,12.97
2019-05-02T22:51:35.093Z,12.94
2019-05-02T22:54:04.586Z,12.98
2019-05-02T22:56:34.030Z,12.96
2019-05-02T22:59:03.610Z,12.78
2019-05-02T23:01:33.124Z,12.70
2019-05-02T23:04:02.691Z,12.69
2019-05-02T23:06:32.134Z,12.57
2019-05-02T23:09:01.983Z,12.56
2019-05-02T23:11:32.981Z,12.46
2019-05-02T23:14:02.611Z,12.49
2019-05-02T23:16:34.468Z,12.50
2019-05-02T23:19:03.330Z,12.60
2019-05-02T23:21:32.861Z,12.62
2019-05-02T23:24:04.418Z,12.51
2019-05-02T23:26:56.172Z,12.63
2019-05-02T23:29:25.688Z,12.45
2019-05-02T23:31:55.058Z,12.55
2019-05-02T23:34:24.556Z,12.62
2019-05-02T23:36:53.983Z,12.57
2019-05-02T23:39:23.357Z,12.65
2019-05-02T23:41:52.766Z,12.63
2019-05-02T23:44:22.876Z,12.45
2019-05-02T23:46:52.490Z,12.69
2019-05-02T23:49:22.119Z,12.62
2019-05-02T23:51:53.288Z,12.67
2019-05-02T23:54:22.694Z,12.64
2019-05-02T23:56:52.115Z,12.68
2019-05-02T23:59:22.364Z,12.57
